Time;durP1;ratioP1;P1;durP2;ratioP2;P2;SDS_P1;SDS_P2;PMS_P1;PMS_P2;Temp;Humidity;BMP_temperature;BMP_pressure;BME280_temperature;BME280_humidity;BME280_pressure;Samples;Min_cycle;Max_cycle;Signal;HPM_P1;HPM_P2
2022/08/31 00:05:38;;;;;;;5.60;3.47;;;18.40;99.90;;;;;;5095755;28;20499;-55
2022/08/31 00:08:07;;;;;;;4.87;3.30;;;18.30;99.90;;;;;;5096214;28;20471;-54
2022/08/31 00:10:35;;;;;;;3.43;3.07;;;18.20;99.90;;;;;;5096939;28;20464;-53
2022/08/31 00:13:02;;;;;;;3.57;3.27;;;18.20;99.90;;;;;;5096570;28;20839;-49
2022/08/31 00:15:32;;;;;;;4.37;3.70;;;18.20;99.90;;;;;;5096878;28;20432;-52
2022/08/31 00:17:59;;;;;;;4.37;3.70;;;18.20;99.90;;;;;;5099058;28;20456;-56
2022/08/31 00:20:31;;;;;;;4.23;3.83;;;18.20;99.90;;;;;;5099669;28;20820;-56
2022/08/31 00:22:58;;;;;;;6.23;4.10;;;18.20;99.90;;;;;;5100159;28;20594;-52
2022/08/31 00:25:27;;;;;;;3.90;3.50;;;18.10;99.90;;;;;;5100551;28;21016;-50
2022/08/31 00:27:55;;;;;;;4.03;3.13;;;18.10;99.90;;;;;;5100207;28;20441;-48
2022/08/31 00:30:23;;;;;;;5.80;4.07;;;18.10;99.90;;;;;;5099638;28;20456;-48
2022/08/31 00:32:51;;;;;;;4.07;3.60;;;18.10;99.90;;;;;;5100562;28;20874;-56
2022/08/31 00:35:18;;;;;;;4.73;4.17;;;18.10;99.90;;;;;;5099949;28;20460;-55
2022/08/31 00:37:49;;;;;;;6.40;4.67;;;18.10;99.90;;;;;;5100200;28;20558;-54
2022/08/31 00:40:16;;;;;;;4.80;4.33;;;18.10;99.90;;;;;;5099366;28;20464;-50
2022/08/31 00:42:45;;;;;;;4.80;3.90;;;18.00;99.90;;;;;;5100026;28;20517;-53
2022/08/31 00:45:13;;;;;;;3.90;3.50;;;18.00;99.90;;;;;;5100119;28;20657;-52
2022/08/31 00:47:40;;;;;;;4.40;4.00;;;17.90;99.90;;;;;;5100210;28;20529;-55
2022/08/31 00:50:11;;;;;;;6.50;4.33;;;18.00;99.90;;;;;;5099157;28;20483;-55
2022/08/31 00:52:42;;;;;;;4.37;3.97;;;18.00;99.90;;;;;;5099371;28;20547;-56
2022/08/31 00:55:12;;;;;;;4.50;3.90;;;17.90;99.90;;;;;;5099955;28;20809;-54
2022/08/31 00:57:46;;;;;;;7.80;4.07;;;18.00;99.90;;;;;;5099961;28;20439;-55
2022/08/31 01:00:22;;;;;;;4.40;4.00;;;18.00;99.90;;;;;;5098431;28;20467;-56
2022/08/31 01:02:50;;;;;;;3.93;3.57;;;17.90;99.90;;;;;;5099980;28;20457;-53
2022/08/31 01:05:18;;;;;;;4.13;3.73;;;17.90;99.90;;;;;;5099921;28;20547;-51
2022/08/31 01:07:50;;;;;;;5.43;4.07;;;17.80;99.90;;;;;;5099920;28;22033;-54
2022/08/31 01:10:23;;;;;;;4.27;3.40;;;17.80;99.90;;;;;;5098524;28;20971;-51
2022/08/31 01:12:53;;;;;;;4.03;3.40;;;17.80;99.90;;;;;;5099438;28;20461;-51
2022/08/31 01:15:23;;;;;;;5.00;3.80;;;17.70;99.90;;;;;;5099723;28;20456;-55
2022/08/31 01:17:54;;;;;;;3.70;3.40;;;17.70;99.90;;;;;;5099680;28;20554;-55
2022/08/31 01:20:26;;;;;;;4.63;3.77;;;17.60;99.90;;;;;;5098470;28;20459;-52
2022/08/31 01:23:08;;;;;;;3.70;3.40;;;17.60;99.90;;;;;;5098877;28;20545;-49
2022/08/31 01:25:36;;;;;;;4.70;3.33;;;17.60;99.90;;;;;;5099666;28;20524;-54
2022/08/31 01:28:08;;;;;;;3.53;3.23;;;17.50;99.90;;;;;;5099187;28;20502;-52
2022/08/31 01:30:36;;;;;;;3.53;3.30;;;17.50;99.90;;;;;;5098067;28;20465;-53
2022/08/31 01:33:04;;;;;;;6.50;3.60;;;17.50;99.90;;;;;;5099670;28;20461;-55
2022/08/31 01:35:32;;;;;;;4.33;3.47;;;17.50;99.90;;;;;;5098264;28;20496;-52
2022/08/31 01:38:02;;;;;;;3.70;3.40;;;17.50;99.90;;;;;;5099210;28;20533;-54
2022/08/31 01:40:33;;;;;;;7.90;3.90;;;17.40;99.90;;;;;;5097746;28;20443;-50
2022/08/31 01:43:00;;;;;;;6.63;3.80;;;17.30;99.90;;;;;;5098234;28;20461;-51
2022/08/31 01:45:28;;;;;;;9.77;5.03;;;17.30;99.90;;;;;;5098517;28;20555;-48
2022/08/31 01:47:55;;;;;;;3.90;3.60;;;17.30;99.90;;;;;;5098703;28;20760;-51
2022/08/31 01:50:22;;;;;;;7.83;3.40;;;17.20;99.90;;;;;;5098166;28;20888;-51
2022/08/31 01:52:50;;;;;;;3.67;3.20;;;17.30;99.90;;;;;;5098474;28;20917;-48
2022/08/31 01:55:22;;;;;;;3.60;2.90;;;17.30;99.90;;;;;;5098775;28;20534;-51
2022/08/31 01:57:52;;;;;;;3.93;3.57;;;17.10;99.90;;;;;;5098981;28;20513;-50
2022/08/31 02:00:20;;;;;;;3.53;3.23;;;17.10;99.90;;;;;;5098588;28;20541;-54
2022/08/31 02:02:47;;;;;;;7.33;3.50;;;17.10;99.90;;;;;;5098030;28;20550;-51
2022/08/31 02:05:14;;;;;;;5.00;3.40;;;17.00;99.90;;;;;;5098370;28;20460;-50
2022/08/31 02:07:46;;;;;;;7.30;4.10;;;16.90;99.90;;;;;;5098945;28;20480;-49
2022/08/31 02:10:15;;;;;;;4.03;3.43;;;16.90;99.90;;;;;;5098447;28;20514;-50
2022/08/31 02:12:44;;;;;;;3.70;3.20;;;16.90;99.90;;;;;;5097756;28;20496;-50
2022/08/31 02:15:11;;;;;;;3.40;3.10;;;16.80;99.90;;;;;;5097985;28;20488;-51
2022/08/31 02:17:39;;;;;;;3.50;3.20;;;16.80;99.90;;;;;;5098795;28;20719;-54
2022/08/31 02:20:14;;;;;;;6.10;3.80;;;16.80;99.90;;;;;;5098209;28;20906;-54
2022/08/31 02:22:43;;;;;;;3.90;3.40;;;16.70;1.00;;;;;;5097030;28;20541;-51
2022/08/31 02:25:16;;;;;;;4.23;3.70;;;16.70;1.00;;;;;;5097828;28;20787;-51
2022/08/31 02:27:45;;;;;;;4.80;3.40;;;16.60;1.00;;;;;;5097702;28;20851;-48
2022/08/31 02:30:17;;;;;;;6.30;3.57;;;16.60;1.00;;;;;;5098116;28;20471;-54
2022/08/31 02:32:44;;;;;;;3.87;3.57;;;16.50;1.00;;;;;;5098126;28;20461;-53
2022/08/31 02:35:16;;;;;;;3.23;2.93;;;16.50;1.00;;;;;;5097844;28;20543;-50
2022/08/31 02:37:43;;;;;;;4.20;3.13;;;16.50;1.00;;;;;;5096968;28;20449;-48
2022/08/31 02:40:11;;;;;;;4.23;3.53;;;16.50;1.00;;;;;;5097561;28;20820;-50
2022/08/31 02:42:39;;;;;;;4.70;3.70;;;16.50;1.00;;;;;;5097664;28;20465;-48
2022/08/31 02:45:11;;;;;;;4.20;3.67;;;16.50;1.00;;;;;;5097976;28;20495;-53
2022/08/31 02:47:39;;;;;;;3.13;2.83;;;16.40;1.00;;;;;;5097238;28;20477;-49
2022/08/31 02:50:09;;;;;;;3.70;3.40;;;16.40;1.00;;;;;;5097508;28;20806;-53
2022/08/31 02:52:38;;;;;;;4.33;3.70;;;16.40;1.00;;;;;;5097901;28;20464;-51
2022/08/31 02:55:06;;;;;;;4.77;2.93;;;16.40;1.00;;;;;;5097963;28;20460;-48
2022/08/31 02:57:33;;;;;;;6.70;4.03;;;16.30;1.00;;;;;;5097113;28;20551;-53
2022/08/31 03:00:00;;;;;;;2.70;2.50;;;16.20;1.00;;;;;;5097471;28;20466;-49
2022/08/31 03:02:32;;;;;;;3.50;3.20;;;16.30;1.00;;;;;;5096593;28;20500;-51
2022/08/31 03:05:01;;;;;;;3.60;3.30;;;16.30;1.00;;;;;;5097847;28;20439;-54
2022/08/31 03:07:30;;;;;;;6.33;3.17;;;16.30;1.00;;;;;;5097201;28;20520;-50
2022/08/31 03:10:00;;;;;;;3.90;3.50;;;16.30;1.00;;;;;;5096811;28;20460;-50
2022/08/31 03:12:27;;;;;;;6.30;3.70;;;16.30;1.00;;;;;;5096651;28;20465;-52
2022/08/31 03:14:54;;;;;;;3.97;3.57;;;16.30;1.00;;;;;;5097696;28;20793;-55
2022/08/31 03:17:22;;;;;;;3.40;3.10;;;16.30;1.00;;;;;;5097075;28;20932;-54
2022/08/31 03:19:50;;;;;;;3.30;3.00;;;16.20;1.00;;;;;;5097753;28;20484;-50
2022/08/31 03:22:18;;;;;;;4.83;3.80;;;16.20;1.00;;;;;;5094263;28;20462;-51
2022/08/31 03:24:45;;;;;;;4.60;4.00;;;16.20;1.00;;;;;;5095827;28;20460;-51
2022/08/31 03:27:12;;;;;;;5.50;3.90;;;16.30;1.00;;;;;;5096370;28;21029;-54
2022/08/31 03:29:41;;;;;;;4.10;3.37;;;16.20;1.00;;;;;;5096562;28;20465;-54
2022/08/31 03:32:08;;;;;;;3.57;3.27;;;16.20;1.00;;;;;;5094641;28;20456;-49
2022/08/31 03:34:36;;;;;;;3.70;3.40;;;16.20;1.00;;;;;;5096160;28;20435;-48
2022/08/31 03:37:06;;;;;;;3.70;3.30;;;16.10;1.00;;;;;;5096349;28;20484;-51
2022/08/31 03:39:36;;;;;;;3.90;3.60;;;16.00;1.00;;;;;;5095874;28;20538;-52
2022/08/31 03:42:08;;;;;;;5.77;3.67;;;16.00;1.00;;;;;;5095352;28;20464;-48
2022/08/31 03:44:35;;;;;;;3.50;3.20;;;16.00;1.00;;;;;;5096870;28;20450;-52
2022/08/31 03:47:08;;;;;;;4.07;3.40;;;16.00;1.00;;;;;;5096145;28;20492;-54
2022/08/31 03:49:37;;;;;;;7.00;3.50;;;15.90;1.00;;;;;;5097210;28;20545;-51
2022/08/31 03:52:07;;;;;;;4.47;3.63;;;16.00;1.00;;;;;;5096054;28;20558;-49
2022/08/31 03:54:35;;;;;;;3.43;3.13;;;16.00;1.00;;;;;;5097655;28;20462;-51
2022/08/31 03:57:04;;;;;;;4.60;4.20;;;16.00;1.00;;;;;;5100719;28;20555;-52
2022/08/31 03:59:34;;;;;;;4.77;4.20;;;16.00;1.00;;;;;;5099618;28;20476;-49
2022/08/31 04:02:02;;;;;;;4.10;3.70;;;15.90;1.00;;;;;;5100415;28;20900;-48
2022/08/31 04:04:33;;;;;;;4.00;3.67;;;16.00;1.00;;;;;;5101112;28;20475;-50
2022/08/31 04:07:01;;;;;;;4.13;3.47;;;15.90;1.00;;;;;;5101101;28;20940;-50
2022/08/31 04:09:36;;;;;;;5.50;3.97;;;15.80;1.00;;;;;;5100199;28;20442;-51
2022/08/31 04:12:04;;;;;;;5.70;4.07;;;15.80;1.00;;;;;;5100491;28;20452;-50
2022/08/31 04:14:32;;;;;;;4.17;3.77;;;15.80;1.00;;;;;;5097594;28;20506;-54
2022/08/31 04:17:00;;;;;;;4.30;3.90;;;15.80;1.00;;;;;;5100608;28;20460;-52
2022/08/31 04:19:27;;;;;;;3.83;3.50;;;15.70;1.00;;;;;;5100271;28;20443;-57
2022/08/31 04:21:56;;;;;;;5.23;3.50;;;15.70;1.00;;;;;;5098189;28;20507;-56
2022/08/31 04:24:25;;;;;;;4.00;3.10;;;15.70;1.00;;;;;;5101706;28;20492;-54
2022/08/31 04:26:54;;;;;;;4.20;3.90;;;15.70;1.00;;;;;;5100492;28;20480;-49
2022/08/31 04:29:22;;;;;;;4.37;3.47;;;15.70;1.00;;;;;;5099936;28;20455;-51
2022/08/31 04:31:49;;;;;;;7.23;3.70;;;15.60;1.00;;;;;;5100393;28;20567;-51
2022/08/31 04:34:17;;;;;;;4.10;3.33;;;15.60;1.00;;;;;;5100045;28;20519;-49
2022/08/31 04:36:45;;;;;;;4.30;3.53;;;15.60;1.00;;;;;;5100281;28;20487;-50
2022/08/31 04:39:15;;;;;;;4.77;2.90;;;15.60;1.00;;;;;;5099951;28;20464;-50
2022/08/31 04:41:42;;;;;;;3.87;3.33;;;15.60;1.00;;;;;;5098020;28;20456;-55
2022/08/31 04:44:11;;;;;;;4.63;3.77;;;15.50;1.00;;;;;;5099271;28;20466;-51
2022/08/31 04:46:39;;;;;;;5.27;3.53;;;15.50;1.00;;;;;;5099251;28;20494;-54
2022/08/31 04:49:08;;;;;;;6.67;3.70;;;15.50;1.00;;;;;;5099067;28;20817;-52
2022/08/31 04:51:37;;;;;;;3.63;3.33;;;15.40;1.00;;;;;;5098803;28;20471;-51
2022/08/31 04:54:06;;;;;;;4.10;3.63;;;15.40;11.50;;;;;;5098914;28;20870;-48
2022/08/31 04:56:35;;;;;;;4.20;3.63;;;15.40;37.90;;;;;;5099738;28;20494;-48
2022/08/31 04:59:09;;;;;;;4.60;3.73;;;15.30;28.20;;;;;;5100218;28;20460;-51
2022/08/31 05:01:43;;;;;;;4.30;3.60;;;15.40;38.10;;;;;;5098077;28;20464;-52
2022/08/31 05:04:11;;;;;;;6.00;3.73;;;15.40;52.30;;;;;;5097895;28;20442;-51
2022/08/31 05:06:41;;;;;;;4.83;4.30;;;15.30;48.00;;;;;;5098175;28;20465;-51
2022/08/31 05:09:11;;;;;;;3.80;3.37;;;15.30;96.70;;;;;;5098846;28;20509;-49
2022/08/31 05:11:40;;;;;;;5.87;4.47;;;15.30;99.90;;;;;;5097558;28;20456;-48
2022/08/31 05:14:09;;;;;;;6.43;4.30;;;15.20;99.90;;;;;;5097689;28;20471;-52
2022/08/31 05:16:40;;;;;;;7.17;3.43;;;15.20;99.90;;;;;;5097573;28;20510;-51
2022/08/31 05:19:08;;;;;;;5.80;3.70;;;15.20;99.90;;;;;;5097467;28;20492;-52
2022/08/31 05:21:37;;;;;;;4.60;4.20;;;15.20;99.90;;;;;;5097090;28;20479;-54
2022/08/31 05:24:08;;;;;;;4.70;4.30;;;15.20;99.90;;;;;;5097735;28;20967;-48
2022/08/31 05:26:43;;;;;;;5.07;3.70;;;15.10;99.90;;;;;;5096768;28;20431;-51
2022/08/31 05:29:13;;;;;;;4.73;4.33;;;15.10;99.90;;;;;;5094933;28;20458;-52
2022/08/31 05:31:46;;;;;;;5.20;4.70;;;15.10;99.90;;;;;;5096341;28;20759;-48
2022/08/31 05:34:14;;;;;;;6.67;3.63;;;15.10;99.90;;;;;;5097842;28;20465;-51
2022/08/31 05:36:43;;;;;;;4.97;3.90;;;15.10;99.90;;;;;;5097597;28;20813;-53
2022/08/31 05:39:11;;;;;;;4.20;3.80;;;15.20;99.90;;;;;;5097869;28;20464;-53
2022/08/31 05:41:40;;;;;;;6.03;3.87;;;15.20;99.90;;;;;;5096123;28;20809;-48
2022/08/31 05:44:10;;;;;;;3.53;3.23;;;15.20;99.90;;;;;;5093613;28;20461;-54
2022/08/31 05:46:43;;;;;;;4.30;3.90;;;15.20;99.90;;;;;;5095324;28;20460;-51
2022/08/31 05:49:11;;;;;;;4.17;3.83;;;15.20;99.90;;;;;;5095916;28;20502;-51
2022/08/31 05:51:41;;;;;;;6.00;3.80;;;15.30;99.90;;;;;;5094889;28;20511;-49
2022/08/31 05:54:10;;;;;;;4.67;3.67;;;15.40;99.90;;;;;;5094479;28;20506;-54
2022/08/31 05:56:41;;;;;;;5.00;3.70;;;15.40;99.90;;;;;;5095947;28;20534;-49
2022/08/31 05:59:08;;;;;;;3.50;3.20;;;15.50;99.90;;;;;;5095947;28;20452;-52
2022/08/31 06:01:38;;;;;;;3.90;3.57;;;15.50;99.90;;;;;;5096491;28;20500;-55
2022/08/31 06:04:08;;;;;;;5.00;3.73;;;15.60;99.90;;;;;;5094365;28;20457;-49
2022/08/31 06:06:46;;;;;;;5.20;4.30;;;15.70;99.90;;;;;;5096237;28;20455;-55
2022/08/31 06:09:16;;;;;;;6.20;3.83;;;15.80;99.90;;;;;;5095156;28;20543;-48
2022/08/31 06:11:43;;;;;;;4.40;3.43;;;15.80;88.20;;;;;;5093734;28;20497;-50
2022/08/31 06:14:13;;;;;;;4.70;4.30;;;15.90;62.40;;;;;;5095165;28;20531;-53
2022/08/31 06:16:46;;;;;;;4.03;3.73;;;16.00;28.70;;;;;;5094969;28;20545;-52
2022/08/31 06:19:15;;;;;;;4.27;3.90;;;16.10;2.30;;;;;;5095872;28;20452;-51
2022/08/31 06:21:48;;;;;;;4.03;3.37;;;16.30;1.00;;;;;;5093439;28;20798;-49
2022/08/31 06:24:15;;;;;;;5.93;4.03;;;16.50;1.00;;;;;;5094777;28;20554;-55
2022/08/31 06:26:42;;;;;;;5.03;4.63;;;16.60;1.00;;;;;;5093364;28;20544;-50
2022/08/31 06:29:10;;;;;;;8.03;4.53;;;16.80;1.00;;;;;;5094535;28;20470;-56
2022/08/31 06:31:46;;;;;;;4.47;4.07;;;16.90;1.00;;;;;;5095669;28;20460;-53
2022/08/31 06:34:16;;;;;;;7.40;3.80;;;17.10;1.00;;;;;;5077556;28;20793;-56
2022/08/31 06:36:44;;;;;;;4.57;4.17;;;17.40;1.00;;;;;;5083701;28;20443;-54
2022/08/31 06:39:12;;;;;;;3.60;3.30;;;17.80;1.00;;;;;;5096640;28;20441;-54
2022/08/31 06:41:40;;;;;;;6.77;4.33;;;18.10;1.00;;;;;;5094844;28;20461;-55
2022/08/31 06:44:12;;;;;;;4.27;3.87;;;18.40;1.00;;;;;;5096077;28;20463;-55
2022/08/31 06:46:43;;;;;;;4.03;3.73;;;18.60;1.00;;;;;;5095662;28;20475;-57
2022/08/31 06:49:11;;;;;;;3.93;3.53;;;18.60;1.00;;;;;;5096079;28;20459;-54
2022/08/31 06:51:40;;;;;;;4.10;3.40;;;18.60;1.00;;;;;;5096031;28;20470;-55
2022/08/31 06:54:12;;;;;;;5.40;3.87;;;18.70;1.00;;;;;;5096988;28;20490;-57
2022/08/31 06:56:40;;;;;;;3.50;3.20;;;18.90;1.00;;;;;;5097425;28;20473;-53
2022/08/31 06:59:08;;;;;;;5.07;4.20;;;19.00;1.00;;;;;;5097567;28;20884;-55
2022/08/31 07:01:39;;;;;;;6.90;3.70;;;19.00;1.00;;;;;;5097262;28;21050;-50
2022/08/31 07:04:13;;;;;;;3.77;3.47;;;19.10;99.90;;;;;;5097697;28;20466;-59
2022/08/31 07:06:46;;;;;;;4.33;3.97;;;19.40;1.00;;;;;;5097704;28;20781;-54
2022/08/31 07:09:17;;;;;;;4.73;4.03;;;19.50;99.90;;;;;;5095486;28;20489;-57
2022/08/31 07:11:46;;;;;;;6.93;3.87;;;19.70;1.00;;;;;;5096041;28;20460;-57
2022/08/31 07:14:17;;;;;;;3.63;3.33;;;19.80;99.90;;;;;;5097509;28;20733;-55
2022/08/31 07:16:45;;;;;;;4.20;3.90;;;20.20;99.90;;;;;;5096657;28;20461;-57
2022/08/31 07:19:13;;;;;;;5.43;4.07;;;20.50;99.90;;;;;;5095247;28;20838;-54
2022/08/31 07:21:47;;;;;;;4.07;3.70;;;20.60;99.90;;;;;;5095191;28;20590;-59
2022/08/31 07:24:18;;;;;;;4.70;4.00;;;21.00;99.90;;;;;;5095847;28;20464;-57
2022/08/31 07:26:51;;;;;;;4.30;3.73;;;21.30;99.90;;;;;;5096316;28;20821;-56
2022/08/31 07:29:21;;;;;;;3.70;3.40;;;21.50;99.90;;;;;;5095527;28;20495;-55
2022/08/31 07:31:49;;;;;;;3.50;3.17;;;21.30;99.90;;;;;;5097436;28;20573;-56
2022/08/31 07:34:19;;;;;;;4.33;3.37;;;21.50;99.90;;;;;;5090744;28;20447;-59
2022/08/31 07:42:24;;;;;;;5.73;3.60;;;22.20;99.90;;;;;;5095816;28;20483;-55
2022/08/31 07:44:53;;;;;;;4.63;3.60;;;22.60;99.90;;;;;;5095551;28;20799;-57
2022/08/31 07:47:27;;;;;;;3.90;3.50;;;22.40;99.90;;;;;;5096872;28;20460;-59
2022/08/31 07:49:57;;;;;;;4.00;3.70;;;22.20;99.90;;;;;;5096227;28;20464;-58
2022/08/31 07:52:27;;;;;;;4.77;3.67;;;22.00;99.90;;;;;;5097353;28;20562;-59
2022/08/31 07:55:05;;;;;;;4.60;4.27;;;22.00;99.90;;;;;;5096600;28;20464;-54
2022/08/31 07:57:41;;;;;;;4.40;3.73;;;22.10;99.90;;;;;;5097237;28;20468;-59
2022/08/31 08:00:09;;;;;;;3.93;3.63;;;22.10;99.90;;;;;;5095963;28;20471;-54
2022/08/31 08:02:45;;;;;;;4.43;3.60;;;21.70;99.90;;;;;;5096840;28;20562;-58
2022/08/31 08:05:19;;;;;;;5.50;3.67;;;21.80;99.90;;;;;;5096996;28;20464;-56
2022/08/31 08:07:50;;;;;;;4.93;3.67;;;22.30;99.90;;;;;;5096887;28;20586;-58
2022/08/31 08:10:21;;;;;;;5.67;4.57;;;22.50;99.90;;;;;;5096091;28;20526;-53
2022/08/31 08:12:59;;;;;;;6.40;3.77;;;22.50;99.90;;;;;;5096594;28;20529;-57
2022/08/31 08:15:29;;;;;;;4.20;3.77;;;21.90;99.90;;;;;;5096976;28;20460;-57
2022/08/31 08:18:00;;;;;;;6.00;4.13;;;21.90;99.90;;;;;;5096284;28;20465;-54
2022/08/31 08:20:27;;;;;;;4.60;4.30;;;22.30;99.90;;;;;;5096245;28;20461;-55
2022/08/31 08:22:56;;;;;;;6.90;3.87;;;22.20;99.90;;;;;;5096070;28;20992;-55
2022/08/31 08:25:24;;;;;;;4.80;3.77;;;22.70;99.90;;;;;;5096285;28;20884;-55
2022/08/31 08:27:54;;;;;;;4.40;4.00;;;23.10;99.90;;;;;;5096426;28;20488;-56
2022/08/31 08:30:24;;;;;;;5.30;4.87;;;23.60;99.90;;;;;;5101473;28;20436;-57
2022/08/31 08:32:51;;;;;;;3.93;3.57;;;23.70;99.90;;;;;;5117216;28;20813;-58
2022/08/31 08:35:19;;;;;;;3.70;3.40;;;23.60;99.90;;;;;;5115195;28;20459;-57
2022/08/31 08:37:47;;;;;;;7.97;4.37;;;23.30;99.90;;;;;;5096325;28;20496;-58
2022/08/31 08:40:28;;;;;;;5.20;4.40;;;23.50;99.90;;;;;;5099439;28;20914;-59
2022/08/31 08:42:58;;;;;;;4.07;3.77;;;23.80;99.90;;;;;;5080527;28;20838;-59
2022/08/31 08:45:27;;;;;;;4.47;4.07;;;23.80;99.90;;;;;;5086809;28;20784;-55
2022/08/31 08:47:55;;;;;;;4.60;4.10;;;24.30;99.90;;;;;;5099922;28;20839;-54
2022/08/31 08:50:26;;;;;;;6.67;3.90;;;24.70;99.90;;;;;;5100032;28;20468;-56
2022/08/31 08:53:00;;;;;;;4.27;3.97;;;24.90;99.90;;;;;;5099705;28;20813;-59
2022/08/31 08:55:38;;;;;;;3.97;3.47;;;24.40;99.90;;;;;;5100045;28;20475;-57
2022/08/31 08:58:09;;;;;;;4.23;3.93;;;24.60;99.90;;;;;;5099931;28;20499;-59
2022/08/31 09:00:45;;;;;;;7.90;4.60;;;24.40;99.90;;;;;;5099931;28;20465;-58
2022/08/31 09:03:22;;;;;;;5.00;4.00;;;24.10;99.90;;;;;;5099010;28;20521;-59
2022/08/31 09:06:05;;;;;;;4.67;4.30;;;24.60;99.90;;;;;;5098692;28;20484;-57
2022/08/31 09:09:07;;;;;;;4.10;3.40;;;24.80;99.90;;;;;;5100006;28;20932;-57
2022/08/31 09:11:48;;;;;;;5.67;4.13;;;24.20;99.90;;;;;;5096657;28;20517;-57
2022/08/31 09:14:27;;;;;;;4.90;3.83;;;24.50;99.90;;;;;;5099272;28;20459;-56
2022/08/31 09:17:15;;;;;;;3.90;3.43;;;24.60;99.90;;;;;;5099357;28;20769;-59
2022/08/31 09:19:59;;;;;;;4.73;4.30;;;25.10;99.90;;;;;;5099726;28;20457;-59
2022/08/31 09:22:27;;;;;;;5.87;3.70;;;25.60;99.90;;;;;;5098585;28;20506;-58
2022/08/31 09:24:58;;;;;;;5.13;3.80;;;26.00;99.90;;;;;;5098945;28;20530;-58
2022/08/31 09:27:55;;;;;;;6.03;4.10;;;25.80;99.90;;;;;;5102842;28;20454;-56
2022/08/31 09:30:39;;;;;;;3.93;3.63;;;25.60;99.90;;;;;;5099405;28;20525;-52
2022/08/31 09:33:10;;;;;;;4.37;3.97;;;25.70;99.90;;;;;;5098829;28;20488;-52
2022/08/31 09:35:40;;;;;;;4.53;4.20;;;26.10;99.90;;;;;;5099330;28;20514;-51
2022/08/31 09:38:16;;;;;;;6.03;3.83;;;25.80;99.90;;;;;;5099402;28;20452;-51
2022/08/31 09:40:47;;;;;;;7.30;4.57;;;26.00;99.90;;;;;;5098918;28;20448;-59
2022/08/31 09:43:28;;;;;;;4.53;4.10;;;25.80;99.90;;;;;;5098060;28;20459;-53
2022/08/31 09:46:03;;;;;;;3.87;3.57;;;26.30;99.90;;;;;;5098919;28;20513;-52
2022/08/31 09:48:50;;;;;;;4.40;4.00;;;26.10;99.90;;;;;;5098749;28;20789;-53
2022/08/31 09:51:24;;;;;;;4.47;3.80;;;26.50;99.90;;;;;;5098877;28;20572;-51
2022/08/31 09:56:57;;;;;;;5.00;4.60;;;26.60;99.90;;;;;;5031381;28;20436;-55
2022/08/31 09:59:50;;;;;;;5.17;4.37;;;25.90;99.90;;;;;;5078665;28;20544;-55
2022/08/31 10:02:36;;;;;;;4.70;3.70;;;25.40;99.90;;;;;;5077601;28;20453;-54
2022/08/31 10:05:07;;;;;;;4.43;3.57;;;26.20;99.90;;;;;;5095957;28;20872;-54
2022/08/31 10:07:44;;;;;;;7.77;3.87;;;26.70;99.90;;;;;;5097795;28;20463;-53
2022/08/31 10:10:14;;;;;;;4.67;4.27;;;26.40;99.90;;;;;;5097041;28;20788;-56
2022/08/31 10:12:47;;;;;;;5.33;4.80;;;26.60;99.90;;;;;;5090415;28;20572;-56
2022/08/31 10:15:21;;;;;;;7.00;3.70;;;26.80;99.90;;;;;;5093441;28;20496;-59
2022/08/31 10:18:01;;;;;;;6.57;4.40;;;26.90;99.90;;;;;;5090578;28;20984;-56
2022/08/31 10:20:38;;;;;;;5.07;4.60;;;26.10;99.90;;;;;;5078094;28;20464;-56
2022/08/31 10:23:15;;;;;;;4.73;4.37;;;26.40;99.90;;;;;;5077435;28;20554;-56
2022/08/31 10:25:51;;;;;;;5.80;4.17;;;26.20;99.90;;;;;;5093217;28;20476;-59
2022/08/31 10:28:30;;;;;;;4.73;4.40;;;26.40;99.90;;;;;;5097355;28;20517;-58
2022/08/31 10:31:06;;;;;;;4.37;3.97;;;26.60;99.90;;;;;;5098172;28;20442;-56
2022/08/31 10:36:26;;;;;;;7.47;3.97;;;27.10;99.90;;;;;;5097467;28;20509;-59
2022/08/31 10:38:57;;;;;;;7.17;3.93;;;27.20;99.90;;;;;;5098059;28;20459;-59
2022/08/31 10:41:29;;;;;;;8.23;4.63;;;27.00;99.90;;;;;;5097946;28;20455;-57
2022/08/31 10:44:04;;;;;;;5.00;4.50;;;27.60;99.90;;;;;;5097810;28;20560;-57
2022/08/31 10:46:40;;;;;;;7.83;5.17;;;27.60;99.90;;;;;;5094288;28;20503;-55
2022/08/31 10:49:08;;;;;;;10.30;4.93;;;27.30;99.90;;;;;;5096488;28;20779;-56
2022/08/31 10:51:49;;;;;;;24.40;5.20;;;27.00;99.90;;;;;;5096909;28;20514;-55
2022/08/31 10:54:29;;;;;;;5.10;4.70;;;26.50;99.90;;;;;;5097763;28;20463;-57
2022/08/31 10:57:08;;;;;;;5.43;4.17;;;26.30;99.90;;;;;;5095482;28;20462;-55
2022/08/31 10:59:44;;;;;;;4.63;4.23;;;26.10;99.90;;;;;;5097639;28;20456;-53
2022/08/31 11:02:38;;;;;;;5.73;4.03;;;26.40;99.90;;;;;;5096859;28;20514;-58
2022/08/31 11:05:28;;;;;;;8.20;4.20;;;26.60;99.90;;;;;;5090853;28;20525;-54
2022/08/31 11:08:05;;;;;;;5.07;4.67;;;26.80;99.90;;;;;;5096600;28;20546;-58
2022/08/31 11:10:44;;;;;;;5.27;4.77;;;26.90;99.90;;;;;;5095551;28;20557;-55
2022/08/31 11:13:29;;;;;;;8.63;4.50;;;27.00;99.90;;;;;;5096859;28;20559;-55
2022/08/31 11:16:18;;;;;;;5.40;4.87;;;27.90;99.90;;;;;;5097376;28;20464;-58
2022/08/31 11:19:13;;;;;;;4.93;4.33;;;28.60;99.90;;;;;;5096886;28;20471;-56
2022/08/31 11:22:11;;;;;;;4.13;3.83;;;29.20;99.90;;;;;;5095632;28;20499;-58
2022/08/31 11:24:59;;;;;;;5.67;4.73;;;29.50;99.90;;;;;;5033918;28;20814;-56
2022/08/31 11:27:32;;;;;;;5.57;5.00;;;29.60;99.90;;;;;;5095994;28;20464;-50
2022/08/31 11:30:03;;;;;;;5.40;5.00;;;29.60;99.90;;;;;;5080651;28;20948;-55
2022/08/31 11:32:38;;;;;;;4.63;3.90;;;29.40;99.90;;;;;;5096301;28;20464;-56
2022/08/31 11:35:09;;;;;;;4.77;4.37;;;29.60;99.90;;;;;;5095596;28;20464;-54
2022/08/31 11:37:56;;;;;;;5.30;4.80;;;29.60;99.90;;;;;;5093619;28;20495;-53
2022/08/31 11:40:58;;;;;;;5.40;4.90;;;29.20;99.90;;;;;;5096032;28;20456;-55
2022/08/31 11:44:01;;;;;;;5.03;4.30;;;28.10;99.90;;;;;;5093107;28;20776;-49
2022/08/31 11:47:08;;;;;;;5.53;4.00;;;28.00;99.90;;;;;;5002566;28;20467;-53
2022/08/31 11:49:42;;;;;;;4.40;4.10;;;28.60;99.90;;;;;;5084855;28;20512;-55
2022/08/31 11:52:33;;;;;;;5.40;4.90;;;28.40;99.90;;;;;;5093199;28;20869;-54
2022/08/31 11:55:28;;;;;;;5.50;5.00;;;27.60;99.90;;;;;;5082419;28;20461;-51
2022/08/31 11:58:18;;;;;;;4.20;3.80;;;26.80;99.90;;;;;;5090021;28;20564;-56
2022/08/31 12:00:50;;;;;;;5.27;4.10;;;26.50;99.90;;;;;;5091027;28;20560;-54
2022/08/31 12:03:44;;;;;;;6.60;3.70;;;26.60;99.90;;;;;;5091057;28;20918;-55
2022/08/31 12:06:51;;;;;;;6.37;4.20;;;26.60;99.90;;;;;;5085091;28;20910;-54
2022/08/31 12:09:46;;;;;;;5.30;4.77;;;27.80;99.90;;;;;;5082025;28;20941;-53
2022/08/31 12:12:29;;;;;;;6.03;4.77;;;28.30;99.90;;;;;;5083216;28;20468;-53
2022/08/31 12:15:07;;;;;;;4.47;4.07;;;27.70;99.90;;;;;;5079373;28;20460;-52
2022/08/31 12:17:50;;;;;;;4.20;3.90;;;27.10;99.90;;;;;;5084127;28;20504;-51
2022/08/31 12:20:27;;;;;;;5.37;4.60;;;26.40;99.90;;;;;;5081951;28;20498;-50
2022/08/31 12:23:34;;;;;;;4.80;4.40;;;26.00;99.90;;;;;;5099806;28;20578;-53
2022/08/31 12:26:34;;;;;;;4.80;4.40;;;26.30;99.90;;;;;;5100016;28;20451;-49
2022/08/31 12:29:22;;;;;;;3.90;3.50;;;26.50;99.90;;;;;;5100370;28;20488;-53
2022/08/31 12:32:14;;;;;;;4.10;3.83;;;26.50;99.90;;;;;;5098578;28;20766;-54
2022/08/31 12:34:49;;;;;;;5.20;4.80;;;26.80;99.90;;;;;;5099106;28;20491;-54
2022/08/31 12:37:22;;;;;;;3.80;3.50;;;26.90;99.90;;;;;;5092037;28;20479;-54
2022/08/31 12:40:07;;;;;;;4.87;4.47;;;26.70;99.90;;;;;;5080237;28;20544;-55
2022/08/31 12:42:41;;;;;;;4.57;4.17;;;25.80;99.90;;;;;;5094024;28;20836;-52
2022/08/31 12:45:13;;;;;;;5.00;4.50;;;25.20;99.90;;;;;;5100157;28;20760;-54
2022/08/31 12:47:55;;;;;;;4.97;4.57;;;24.90;99.90;;;;;;5099614;28;20818;-53
2022/08/31 12:50:34;;;;;;;5.40;5.00;;;24.80;99.90;;;;;;5098975;28;20864;-55
2022/08/31 12:53:34;;;;;;;4.70;4.07;;;24.70;99.90;;;;;;5096159;28;20905;-50
2022/08/31 12:56:19;;;;;;;4.70;3.83;;;24.70;99.90;;;;;;5078298;28;20464;-55
2022/08/31 12:59:13;;;;;;;5.17;4.70;;;24.60;99.90;;;;;;5098346;28;20496;-53
2022/08/31 13:01:45;;;;;;;5.93;3.80;;;24.80;99.90;;;;;;5087622;28;20469;-53
2022/08/31 13:04:15;;;;;;;5.20;4.60;;;25.10;99.90;;;;;;5077309;28;20461;-51
2022/08/31 13:06:48;;;;;;;5.40;4.20;;;25.20;99.90;;;;;;5084640;28;20461;-49
2022/08/31 13:09:28;;;;;;;5.07;4.67;;;25.10;99.90;;;;;;5077373;28;20499;-55
2022/08/31 13:11:57;;;;;;;5.80;4.57;;;25.10;99.90;;;;;;5095062;28;20517;-53
2022/08/31 13:14:31;;;;;;;6.07;3.73;;;25.20;99.90;;;;;;5092034;28;20497;-52
2022/08/31 13:17:04;;;;;;;4.57;4.20;;;25.30;99.90;;;;;;5082918;28;20543;-53
2022/08/31 13:19:47;;;;;;;4.97;4.57;;;25.40;99.90;;;;;;5099050;28;20460;-50
2022/08/31 13:22:26;;;;;;;5.57;5.00;;;25.50;99.90;;;;;;5095988;28;20510;-56
2022/08/31 13:24:57;;;;;;;4.80;4.40;;;25.40;99.90;;;;;;5090971;28;20469;-54
2022/08/31 13:27:29;;;;;;;4.47;4.10;;;25.40;99.90;;;;;;5083304;28;20518;-54
2022/08/31 13:30:17;;;;;;;4.43;4.03;;;25.50;99.90;;;;;;5096297;28;20466;-53
2022/08/31 13:32:48;;;;;;;5.50;4.90;;;25.00;99.90;;;;;;5079390;28;20519;-51
2022/08/31 13:35:18;;;;;;;4.20;3.90;;;24.80;99.90;;;;;;5096827;28;20445;-55
2022/08/31 13:37:59;;;;;;;4.77;4.47;;;24.80;99.90;;;;;;5099322;28;20448;-52